Roseau, MN

6:56 AM CDT on April 21, 2018 (GMT -0500)
Roseau Municipal-Billberg

Weather History for KROX - January, 2014

Change the Weather History Date:

Thursday, January 30, 2014

  Actual Average Record
Temperature  
Mean Temperature -4 °F -  
Max Temperature 1 °F 13 °F 40 °F (1993)
Min Temperature -9 °F -10 °F -42 °F (1950)
Degree Days  
Heating Degree Days 69    
Moisture  
Dew Point -14 °F    
Average Humidity 69    
Maximum Humidity 77    
Minimum Humidity 60    
Precipitation  
Precipitation 0.00 in - - ()
Sea Level Pressure  
Sea Level Pressure 29.78 in    
Wind  
Wind Speed 10 mph (WNW)    
Max Wind Speed 15 mph    
Max Gust Speed 22 mph    
Visibility 10 miles    
Events      
Averages and records for this station are not official NWS values.
T = Trace of Precipitation, MM = Missing Value Source: NWS Daily Summary

Daily Weather History Graph

Daily Weather History Graph

Search for Another Location

Airport or City:

Astronomy

Jan. 30, 2014 Rise Set
Actual Time 7:55 AM CST 5:17 PM CST
Civil Twilight 7:21 AM CST 5:51 PM CST
Nautical Twilight 6:43 AM CST 6:29 PM CST
Astronomical Twilight 6:06 AM CST 7:06 PM CST
Moon 7:18 AM CST (1/30) 5:35 PM CST (1/30)
Length of Visible Light 10h 30m
Length of Day
9h 21m
Waning Crescent, 0% of the Moon is Illuminated
Jan 30
Waning Crescent
Jan 30
New
Feb 6
First Quarter
Feb 14
Full
Feb 22
Last Quarter

Hourly Weather History & Observations

Time (CST) Temp. Windchill Dew Point Humidity Pressure Visibility Wind Dir Wind Speed Gust Speed Precip Events Conditions
12:15 AM 1.4 °F -15.3 °F -7.6 °F 66% 29.60 in 10.0 mi NW 11.5 mph - N/A   Overcast
12:34 AM 1.4 °F -14.5 °F -7.6 °F 66% 29.60 in 10.0 mi NW 10.4 mph - N/A   Overcast
12:54 AM -0.4 °F -17.6 °F -9.4 °F 66% 29.61 in 10.0 mi NW 11.5 mph - N/A   Scattered Clouds
1:14 AM -0.4 °F -19.9 °F -9.4 °F 66% 29.61 in 10.0 mi NW 15.0 mph - N/A   Clear
1:34 AM -2.2 °F -16.8 °F -9.4 °F 71% 29.61 in 10.0 mi NW 8.1 mph - N/A   Clear
1:54 AM -2.2 °F -15.6 °F -9.4 °F 71% 29.61 in 10.0 mi NW 6.9 mph - N/A   Clear
2:14 AM -2.2 °F -18.0 °F -9.4 °F 71% 29.62 in 10.0 mi NW 9.2 mph - N/A   Clear
2:34 AM -2.2 °F -16.8 °F -9.4 °F 71% 29.63 in 10.0 mi WNW 8.1 mph - N/A   Clear
2:54 AM -2.2 °F -19.9 °F -11.2 °F 66% 29.63 in 10.0 mi NW 11.5 mph - N/A   Clear
3:15 AM -4.0 °F -19.0 °F -11.2 °F 71% 29.64 in 10.0 mi NW 8.1 mph - N/A   Clear
3:34 AM -4.0 °F -19.0 °F -11.2 °F 71% 29.65 in 10.0 mi NW 8.1 mph - N/A   Clear
3:54 AM -5.8 °F -18.4 °F -11.2 °F 77% 29.65 in 10.0 mi WNW 5.8 mph - N/A   Clear
4:15 AM -5.8 °F -21.2 °F -11.2 °F 77% 29.66 in 10.0 mi NW 8.1 mph - N/A   Clear
4:34 AM -5.8 °F -22.4 °F -11.2 °F 77% 29.66 in 10.0 mi NW 9.2 mph - N/A   Clear
4:54 AM -5.8 °F -22.4 °F -13.0 °F 71% 29.67 in 10.0 mi NW 9.2 mph - N/A   Clear
5:15 AM -5.8 °F -24.4 °F -13.0 °F 71% 29.68 in 10.0 mi NW 11.5 mph - N/A   Clear
5:34 AM -5.8 °F -23.4 °F -13.0 °F 71% 29.68 in 10.0 mi NNW 10.4 mph - N/A   Clear
5:54 AM -7.6 °F -23.4 °F -14.8 °F 71% 29.68 in 10.0 mi NW 8.1 mph - N/A   Clear
6:15 AM -7.6 °F -24.6 °F -14.8 °F 71% 29.69 in 10.0 mi NW 9.2 mph - N/A   Clear
6:34 AM -7.6 °F -22.1 °F -14.8 °F 71% 29.70 in 10.0 mi NW 6.9 mph - N/A   Clear
6:54 AM -7.6 °F -25.7 °F -14.8 °F 71% 29.72 in 10.0 mi NW 10.4 mph - N/A   Clear
7:15 AM -7.6 °F -25.7 °F -14.8 °F 71% 29.72 in 10.0 mi NNW 10.4 mph - N/A   Clear
7:34 AM -7.6 °F -24.6 °F -16.6 °F 65% 29.73 in 10.0 mi NW 9.2 mph - N/A   Clear
7:54 AM -9.4 °F -24.3 °F -16.6 °F 71% 29.74 in 10.0 mi NW 6.9 mph - N/A   Clear
8:15 AM -9.4 °F -25.6 °F -16.6 °F 71% 29.74 in 10.0 mi NW 8.1 mph - N/A   Clear
8:34 AM -9.4 °F -25.6 °F -16.6 °F 71% 29.75 in 10.0 mi NW 8.1 mph - N/A   Clear
8:54 AM -9.4 °F -24.3 °F -16.6 °F 71% 29.77 in 10.0 mi WNW 6.9 mph - N/A   Clear
9:15 AM -9.4 °F -22.7 °F -16.6 °F 71% 29.78 in 10.0 mi WNW 5.8 mph - N/A   Clear
9:34 AM -9.4 °F -24.3 °F -16.6 °F 71% 29.78 in 10.0 mi WNW 6.9 mph - N/A   Clear
9:55 AM -9.4 °F -24.3 °F -16.6 °F 71% 29.79 in 10.0 mi WNW 6.9 mph - N/A   Clear
10:14 AM -7.6 °F -23.4 °F -16.6 °F 65% 29.79 in 7.0 mi WNW 8.1 mph - N/A   Clear
10:34 AM -7.6 °F -26.6 °F -14.8 °F 71% 29.79 in 7.0 mi WNW 11.5 mph - N/A   Clear
10:55 AM -7.6 °F -26.6 °F -16.6 °F 65% 29.80 in 10.0 mi WNW 11.5 mph - N/A   Clear
11:14 AM -7.6 °F -25.7 °F -16.6 °F 65% 29.81 in 10.0 mi WNW 10.4 mph - N/A   Clear
11:34 AM -7.6 °F -25.7 °F -16.6 °F 65% 29.81 in 10.0 mi WNW 10.4 mph - N/A   Clear
11:55 AM -5.8 °F -21.2 °F -16.6 °F 60% 29.81 in 10.0 mi WNW 8.1 mph - N/A   Clear
12:14 PM -5.8 °F -23.4 °F -16.6 °F 60% 29.80 in 10.0 mi WNW 10.4 mph - N/A   Clear
12:34 PM -5.8 °F -24.4 °F -14.8 °F 65% 29.81 in 10.0 mi West 11.5 mph - N/A   Clear
12:55 PM -5.8 °F -22.4 °F -14.8 °F 65% 29.81 in 10.0 mi West 9.2 mph - N/A   Clear
1:14 PM -5.8 °F -26.0 °F -14.8 °F 65% 29.80 in 10.0 mi West 13.8 mph 20.7 mph N/A   Clear
1:34 PM -5.8 °F -26.8 °F -14.8 °F 65% 29.80 in 10.0 mi West 15.0 mph 20.7 mph N/A   Clear
1:54 PM -5.8 °F -26.8 °F -14.8 °F 65% 29.81 in 10.0 mi West 15.0 mph 20.7 mph N/A   Clear
2:14 PM -5.8 °F -25.2 °F -14.8 °F 65% 29.81 in 10.0 mi West 12.7 mph 21.9 mph N/A   Clear
2:35 PM -5.8 °F -26.0 °F -14.8 °F 65% 29.82 in 10.0 mi West 13.8 mph 20.7 mph N/A   Clear
2:54 PM -5.8 °F -25.2 °F -14.8 °F 65% 29.82 in 10.0 mi West 12.7 mph 18.4 mph N/A   Clear
3:14 PM -5.8 °F -26.0 °F -14.8 °F 65% 29.82 in 10.0 mi West 13.8 mph 18.4 mph N/A   Clear
3:35 PM -5.8 °F -25.2 °F -16.6 °F 60% 29.83 in 10.0 mi West 12.7 mph 18.4 mph N/A   Clear
3:54 PM -5.8 °F -24.4 °F -16.6 °F 60% 29.84 in 10.0 mi West 11.5 mph 20.7 mph N/A   Clear
4:14 PM -5.8 °F -23.4 °F -14.8 °F 65% 29.84 in 10.0 mi West 10.4 mph 20.7 mph N/A   Clear
4:34 PM -5.8 °F -24.4 °F -14.8 °F 65% 29.85 in 10.0 mi West 11.5 mph 18.4 mph N/A   Clear
4:54 PM -5.8 °F -25.2 °F -14.8 °F 65% 29.85 in 10.0 mi West 12.7 mph 18.4 mph N/A   Clear
5:15 PM -7.6 °F -28.3 °F -16.6 °F 65% 29.86 in 10.0 mi West 13.8 mph 19.6 mph N/A   Clear
5:34 PM -7.6 °F -24.6 °F -14.8 °F 71% 29.86 in 5.0 mi West 9.2 mph 17.3 mph N/A   Haze
5:54 PM -7.6 °F -24.6 °F -14.8 °F 71% 29.87 in 10.0 mi West 9.2 mph - N/A   Clear
6:14 PM -7.6 °F -24.6 °F -14.8 °F 71% 29.87 in 10.0 mi West 9.2 mph - N/A   Clear
6:34 PM -7.6 °F -22.1 °F -14.8 °F 71% 29.88 in 10.0 mi West 6.9 mph - N/A   Mostly Cloudy
6:54 PM -7.6 °F -23.4 °F -14.8 °F 71% 29.88 in 10.0 mi West 8.1 mph - N/A   Overcast
7:15 PM -5.8 °F -19.9 °F -14.8 °F 65% 29.88 in 7.0 mi West 6.9 mph - N/A   Overcast
7:34 PM -7.6 °F -22.1 °F -14.8 °F 71% 29.88 in 10.0 mi West 6.9 mph - N/A   Overcast
7:54 PM -5.8 °F -19.9 °F -13.0 °F 71% 29.88 in 10.0 mi WSW 6.9 mph - N/A   Overcast
8:15 PM -7.6 °F -20.6 °F -14.8 °F 71% 29.88 in 10.0 mi SW 5.8 mph - N/A   Overcast
8:34 PM -7.6 °F -22.1 °F -14.8 °F 71% 29.88 in 10.0 mi WSW 6.9 mph - N/A   Overcast
8:54 PM -7.6 °F -22.1 °F -14.8 °F 71% 29.88 in 10.0 mi WSW 6.9 mph - N/A   Overcast
9:15 PM -5.8 °F -21.2 °F -14.8 °F 65% 29.89 in 10.0 mi West 8.1 mph - N/A   Overcast
9:34 PM -5.8 °F -19.9 °F -13.0 °F 71% 29.89 in 10.0 mi WSW 6.9 mph - N/A   Overcast
9:54 PM -7.6 °F -18.8 °F -14.8 °F 71% 29.90 in 10.0 mi West 4.6 mph - N/A   Overcast
10:14 PM -7.6 °F -18.8 °F -14.8 °F 71% 29.90 in 7.0 mi SW 4.6 mph - N/A   Overcast
10:34 PM -7.6 °F -23.4 °F -14.8 °F 71% 29.89 in 10.0 mi SW 8.1 mph - N/A   Overcast
10:54 PM -7.6 °F -23.4 °F -14.8 °F 71% 29.90 in 10.0 mi SW 8.1 mph - N/A   Overcast
11:14 PM -7.6 °F -23.4 °F -14.8 °F 71% 29.90 in 10.0 mi SW 8.1 mph - N/A   Overcast
11:34 PM -5.8 °F -22.4 °F -13.0 °F 71% 29.90 in 10.0 mi SW 9.2 mph - N/A   Overcast
11:54 PM -5.8 °F -19.9 °F -13.0 °F 71% 29.90 in 10.0 mi SW 6.9 mph - N/A   Overcast